BISF weather

Selfoss Airport
Selfoss, Southern Region, Iceland

Public forecast

Using degrees Celsius for public forecast. Weather courtesy of forecast.io.

METAR (pilot weather report)

Closest report is Reykjavik Airport, 26.6 nm (49.3 km) WNW. Retrieved 2019/04/25 14:00 UTC (5 minutes ago):

BIRK 251400Z 13010KT 9999 FEW030 BKN074 13/04 Q0998

TAF (pilot weather forecast)

Closest forecast is Reykjavik Airport, 26.6 nm (49.3 km) WNW. Retrieved 2019/04/25 15:45 UTC (0 seconds ago):

TAF BIRK 251343Z 2515/2615 12016KT 9999 FEW020 SCT050 TX14/2515Z TN06/2611Z BECMG 2515/2518 12006KT BECMG 2520/2523 11016KT 5000 RADZ BR SCT010 OVC020 BECMG 2605/2608 9999 -SHRA BKN020